Terminal Aerodrome Forecast
Issued by NWS

Home | Current Version | Previous Version | Text Only | Print | Product List | Glossary On
Versions: 1 2 3 4 5 6 7 8 9 10 11 12 13
519
FTUS44 KLIX 191120
TAFMCB
TAF
KMCB 191120Z 1912/2012 09004KT P6SM FEW140 FEW250
      TEMPO 2010/2012 5SM BR=

USA.gov is the U.S. government's official web portal to all federal, state and local government web resources and services.